createdAt,value
2023-04-27T00:02:51.758Z,100580.84
2023-04-27T00:05:53.733Z,100597.38
2023-04-27T00:08:55.725Z,100590.41
2023-04-27T00:11:57.585Z,100602.87
2023-04-27T00:14:59.812Z,100594.25
2023-04-27T00:18:02.172Z,100604.34
2023-04-27T00:21:04.176Z,100604.25
2023-04-27T00:24:06.168Z,100603.19
2023-04-27T00:27:08.305Z,100603.25
2023-04-27T00:30:10.365Z,100595.75
2023-04-27T00:33:12.250Z,100597.47
2023-04-27T00:36:14.072Z,100608.53
2023-04-27T00:39:16.857Z,100601.16
2023-04-27T00:42:19.760Z,100603.53
2023-04-27T00:45:21.644Z,100603.56
2023-04-27T00:48:23.514Z,100605.78
2023-04-27T00:51:30.310Z,100604.88
2023-04-27T00:54:32.196Z,100610.16
2023-04-27T00:57:34.351Z,100598.88
2023-04-27T01:00:36.643Z,100592.66
2023-04-27T01:03:38.818Z,100602.72
2023-04-27T01:06:40.751Z,100600.28
2023-04-27T01:09:42.616Z,100602.91
2023-04-27T01:12:44.539Z,100602.56
2023-04-27T01:15:46.392Z,100588.25
2023-04-27T01:18:48.290Z,100595.78
2023-04-27T01:21:50.148Z,100603.19
2023-04-27T01:24:52.123Z,100609.00
2023-04-27T01:27:54.483Z,100610.34
2023-04-27T01:30:56.488Z,100613.66
2023-04-27T01:33:58.355Z,100609.28
2023-04-27T01:37:00.227Z,100605.53
2023-04-27T01:40:02.072Z,100619.87
2023-04-27T01:43:04.072Z,100621.22
2023-04-27T01:46:07.084Z,100621.75
2023-04-27T01:49:09.032Z,100614.28
2023-04-27T01:52:10.937Z,100616.50
2023-04-27T01:55:12.761Z,100617.09
2023-04-27T01:58:14.644Z,100620.78
2023-04-27T02:01:16.594Z,100624.94
2023-04-27T02:04:18.567Z,100631.25
2023-04-27T02:07:20.791Z,100628.44
2023-04-27T02:10:22.630Z,100630.28
2023-04-27T02:13:24.489Z,100634.50
2023-04-27T02:16:26.297Z,100642.72
2023-04-27T02:19:28.122Z,100643.97
2023-04-27T02:22:29.983Z,100633.72
2023-04-27T02:25:31.857Z,100631.47
2023-04-27T02:28:33.826Z,100641.25
2023-04-27T02:31:36.163Z,100652.25
2023-04-27T02:34:38.087Z,100647.31
2023-04-27T02:37:40.053Z,100653.53
2023-04-27T02:40:42.119Z,100657.59
2023-04-27T02:43:43.978Z,100655.53
2023-04-27T02:46:45.930Z,100653.19
2023-04-27T02:49:47.940Z,100654.63
2023-04-27T02:52:49.835Z,100654.25
2023-04-27T02:55:52.007Z,100661.41
2023-04-27T02:58:53.859Z,100677.25
2023-04-27T03:01:55.744Z,100661.06
2023-04-27T03:04:59.269Z,100667.44
2023-04-27T03:08:01.501Z,100678.09
2023-04-27T03:11:04.029Z,100678.09
2023-04-27T03:14:06.331Z,100681.41
2023-04-27T03:17:08.224Z,100678.41
2023-04-27T03:20:10.514Z,100670.91
2023-04-27T03:23:12.387Z,100683.34
2023-04-27T03:26:14.429Z,100686.34
2023-04-27T03:29:16.272Z,100690.69
2023-04-27T03:32:18.140Z,100689.41
2023-04-27T03:35:20.070Z,100683.78
2023-04-27T03:38:22.016Z,100698.59
2023-04-27T03:41:23.903Z,100696.84
2023-04-27T03:44:25.860Z,100686.16
2023-04-27T03:47:27.722Z,100704.06
2023-04-27T03:50:30.316Z,100702.31
2023-04-27T03:53:32.362Z,100707.84
2023-04-27T03:56:34.685Z,100708.25
2023-04-27T03:59:36.699Z,100710.22
2023-04-27T04:02:39.234Z,100701.37
2023-04-27T04:05:41.382Z,100719.84
2023-04-27T04:08:43.313Z,100719.06
2023-04-27T04:11:45.158Z,100727.78
2023-04-27T04:14:49.048Z,100729.94
2023-04-27T04:17:51.319Z,100729.56
2023-04-27T04:20:53.417Z,100734.59
2023-04-27T04:23:55.388Z,100734.28
2023-04-27T04:26:58.628Z,100740.47
2023-04-27T04:30:00.634Z,100741.94
2023-04-27T04:33:02.840Z,100750.19
2023-04-27T04:36:04.946Z,100740.44
2023-04-27T04:39:07.147Z,100733.06
2023-04-27T04:42:09.071Z,100741.38
2023-04-27T04:45:11.090Z,100751.03
2023-04-27T04:48:14.445Z,100743.44
2023-04-27T04:51:16.791Z,100748.00
2023-04-27T04:54:18.694Z,100739.00
2023-04-27T04:57:20.900Z,100746.44
2023-04-27T05:00:23.449Z,100744.94
2023-04-27T05:03:25.729Z,100727.53
2023-04-27T05:06:27.800Z,100740.25
2023-04-27T05:09:29.966Z,100745.81
2023-04-27T05:12:31.980Z,100752.19
2023-04-27T05:15:33.909Z,100736.13
2023-04-27T05:18:36.371Z,100749.41
2023-04-27T05:21:38.623Z,100745.00
2023-04-27T05:24:40.837Z,100762.69
2023-04-27T05:27:42.755Z,100757.69
2023-04-27T05:30:44.792Z,100765.34
2023-04-27T05:33:47.154Z,100753.84
2023-04-27T05:36:49.040Z,100773.19
2023-04-27T05:39:51.080Z,100774.47
2023-04-27T05:42:53.117Z,100769.34
2023-04-27T05:45:55.079Z,100772.31
2023-04-27T05:48:57.028Z,100779.75
2023-04-27T05:52:01.302Z,100775.94
2023-04-27T05:55:03.820Z,100781.88
2023-04-27T05:58:08.974Z,100778.91
2023-04-27T06:01:11.425Z,100775.53
2023-04-27T06:04:13.393Z,100789.50
2023-04-27T06:07:16.343Z,100782.63
2023-04-27T06:10:18.441Z,100788.22
2023-04-27T06:13:20.570Z,100788.63
2023-04-27T06:16:23.043Z,100786.59
2023-04-27T06:19:25.557Z,100789.53
2023-04-27T06:22:27.848Z,100797.13
2023-04-27T06:25:29.883Z,100788.78
2023-04-27T06:28:32.036Z,100792.50
2023-04-27T06:31:34.333Z,100785.16
2023-04-27T06:34:36.443Z,100795.56
2023-04-27T06:37:38.393Z,100800.06
2023-04-27T06:40:40.463Z,100794.16
2023-04-27T06:43:42.517Z,100795.06
2023-04-27T06:46:44.579Z,100797.13
2023-04-27T06:49:48.469Z,100796.31
2023-04-27T06:52:51.513Z,100807.56
2023-04-27T06:55:53.556Z,100796.00
2023-04-27T06:58:55.775Z,100803.03
2023-04-27T07:01:57.871Z,100800.97
2023-04-27T07:05:00.399Z,100801.66
2023-04-27T07:08:05.348Z,100798.75
2023-04-27T07:11:12.423Z,100807.53
2023-04-27T07:14:15.167Z,100805.16
2023-04-27T07:17:17.283Z,100800.38
2023-04-27T07:20:19.608Z,100795.97
2023-04-27T07:23:23.738Z,100797.28
2023-04-27T07:26:25.721Z,100795.41
2023-04-27T07:29:30.514Z,100800.75
2023-04-27T07:32:35.446Z,100802.31
2023-04-27T07:35:37.629Z,100811.56
2023-04-27T07:38:39.646Z,100811.94
2023-04-27T07:41:43.915Z,100816.84
2023-04-27T07:44:45.826Z,100807.47
2023-04-27T07:47:47.935Z,100805.94
2023-04-27T07:50:50.232Z,100796.37
2023-04-27T07:53:52.246Z,100798.94
2023-04-27T07:56:54.533Z,100800.31
2023-04-27T07:59:57.122Z,100775.03
2023-04-27T08:02:59.404Z,100786.84
2023-04-27T08:06:02.231Z,100804.13
2023-04-27T08:09:04.544Z,100802.66
2023-04-27T08:12:06.882Z,100802.91
2023-04-27T08:15:09.113Z,100797.47
2023-04-27T08:18:11.040Z,100795.00
2023-04-27T08:21:15.497Z,100798.09
2023-04-27T08:24:17.440Z,100803.69
2023-04-27T08:27:19.330Z,100778.84
2023-04-27T08:30:21.847Z,100793.69
2023-04-27T08:33:24.539Z,100800.47
2023-04-27T08:36:27.895Z,100799.66
2023-04-27T08:39:30.183Z,100801.25
2023-04-27T08:42:31.975Z,100791.56
2023-04-27T08:45:33.879Z,100797.66
2023-04-27T08:48:36.338Z,100783.22
2023-04-27T08:51:38.624Z,100793.50
2023-04-27T08:54:40.939Z,100799.78
2023-04-27T08:57:42.840Z,100804.50
2023-04-27T09:00:47.133Z,100806.00
2023-04-27T09:03:49.433Z,100794.38
2023-04-27T09:06:54.189Z,100802.03
2023-04-27T09:10:03.060Z,100798.78
2023-04-27T09:13:05.002Z,100771.97
2023-04-27T09:16:07.116Z,100785.34
2023-04-27T09:19:09.109Z,100771.12
2023-04-27T09:22:11.566Z,100759.31
2023-04-27T09:25:30.064Z,100763.03
2023-04-27T09:28:32.493Z,100770.81
2023-04-27T09:31:34.849Z,100770.22
2023-04-27T09:34:43.812Z,100766.19
2023-04-27T09:37:45.803Z,100770.53
2023-04-27T09:40:48.425Z,100759.72
2023-04-27T09:43:50.315Z,100766.97
2023-04-27T09:46:52.226Z,100764.41
2023-04-27T09:49:54.361Z,100751.12
2023-04-27T09:52:57.251Z,100751.56
2023-04-27T09:55:59.086Z,100732.81
2023-04-27T09:59:20.236Z,100750.41
2023-04-27T10:02:24.753Z,100742.25
2023-04-27T10:05:27.630Z,100721.75
2023-04-27T10:08:29.616Z,100734.72
2023-04-27T10:11:41.607Z,100722.63
2023-04-27T10:14:57.149Z,100728.69
2023-04-27T10:18:03.776Z,100732.19
2023-04-27T10:21:12.157Z,100729.66
2023-04-27T10:24:14.098Z,100720.06
2023-04-27T10:27:16.941Z,100737.84
2023-04-27T10:30:19.515Z,100721.31
2023-04-27T10:33:22.502Z,100729.91
2023-04-27T10:36:24.464Z,100741.25
2023-04-27T10:39:46.955Z,100721.13
2023-04-27T10:42:51.011Z,100706.38
2023-04-27T10:45:53.179Z,100709.69
2023-04-27T10:48:55.427Z,100715.78
2023-04-27T10:51:58.293Z,100724.91
2023-04-27T10:55:20.538Z,100735.37
2023-04-27T10:58:23.442Z,100726.13
2023-04-27T11:01:25.915Z,100728.72
2023-04-27T11:04:41.547Z,100711.19
2023-04-27T11:07:43.590Z,100733.72
2023-04-27T11:10:47.204Z,100739.56
2023-04-27T11:13:49.710Z,100731.63
2023-04-27T11:16:52.208Z,100728.56
2023-04-27T11:19:54.288Z,100718.22
2023-04-27T11:22:56.230Z,100714.03
2023-04-27T11:26:00.672Z,100718.41
2023-04-27T11:29:09.893Z,100719.13
2023-04-27T11:32:21.551Z,100714.34
2023-04-27T11:35:33.756Z,100718.75
2023-04-27T11:38:36.217Z,100698.69
2023-04-27T11:41:39.351Z,100704.25
2023-04-27T11:44:41.638Z,100704.50
2023-04-27T11:47:46.656Z,100699.13
2023-04-27T11:50:49.261Z,100693.06
2023-04-27T11:53:54.405Z,100700.75
2023-04-27T11:57:04.660Z,100704.03
2023-04-27T12:00:13.327Z,100703.72
2023-04-27T12:03:15.447Z,100694.00
2023-04-27T12:09:24.071Z,100708.84
2023-04-27T12:12:27.396Z,100696.09
2023-04-27T12:15:29.343Z,100694.69
2023-04-27T12:18:31.325Z,100686.31
2023-04-27T12:21:34.090Z,100692.97
2023-04-27T12:24:40.048Z,100694.19
2023-04-27T12:27:45.078Z,100683.31
2023-04-27T12:30:47.183Z,100706.53
2023-04-27T12:33:49.549Z,100700.75
2023-04-27T12:36:51.771Z,100695.00
2023-04-27T12:39:53.817Z,100712.16
2023-04-27T12:42:56.055Z,100701.69
2023-04-27T12:46:00.137Z,100700.69
2023-04-27T12:49:06.540Z,100693.28
2023-04-27T12:52:08.786Z,100702.16
2023-04-27T12:55:24.829Z,100706.25
2023-04-27T12:58:33.482Z,100714.84
2023-04-27T13:01:35.543Z,100701.44
2023-04-27T13:04:37.871Z,100706.56
2023-04-27T13:07:39.979Z,100704.84
2023-04-27T13:10:42.470Z,100710.47
2023-04-27T13:13:47.061Z,100708.22
2023-04-27T13:16:49.306Z,100687.28
2023-04-27T13:19:51.306Z,100708.53
2023-04-27T13:22:53.561Z,100713.09
2023-04-27T13:25:56.683Z,100704.22
2023-04-27T13:28:58.987Z,100707.13
2023-04-27T13:32:01.293Z,100706.66
2023-04-27T13:35:04.129Z,100708.91
2023-04-27T13:38:06.381Z,100701.59
2023-04-27T13:41:08.815Z,100702.19
2023-04-27T13:44:11.894Z,100688.63
2023-04-27T13:47:14.172Z,100703.34
2023-04-27T13:50:16.381Z,100700.59
2023-04-27T13:53:18.398Z,100698.19
2023-04-27T13:56:21.051Z,100695.88
2023-04-27T13:59:23.135Z,100691.09
2023-04-27T14:02:25.377Z,100707.22
2023-04-27T14:05:27.490Z,100685.72
2023-04-27T14:08:29.366Z,100699.22
2023-04-27T14:11:31.405Z,100703.47
2023-04-27T14:14:36.460Z,100696.69
2023-04-27T14:17:38.599Z,100689.75
2023-04-27T14:20:42.212Z,100699.03
2023-04-27T14:23:44.199Z,100705.03
2023-04-27T14:26:47.604Z,100718.19
2023-04-27T14:29:49.976Z,100718.09
2023-04-27T14:32:52.154Z,100715.59
2023-04-27T14:35:54.261Z,100713.22
2023-04-27T14:38:56.131Z,100716.75
2023-04-27T14:41:58.115Z,100710.12
2023-04-27T14:45:00.238Z,100715.81
2023-04-27T14:48:02.357Z,100708.53
2023-04-27T14:51:04.381Z,100712.03
2023-04-27T14:54:07.887Z,100707.31
2023-04-27T14:57:09.833Z,100706.78
2023-04-27T15:00:14.630Z,100705.78
2023-04-27T15:03:17.107Z,100717.56
2023-04-27T15:06:19.546Z,100715.66
2023-04-27T15:09:21.496Z,100719.25
2023-04-27T15:12:23.387Z,100717.53
2023-04-27T15:15:25.254Z,100715.28
2023-04-27T15:18:27.234Z,100695.25
2023-04-27T15:21:30.061Z,100709.97
2023-04-27T15:24:32.066Z,100707.81
2023-04-27T15:27:34.031Z,100727.94
2023-04-27T15:30:36.110Z,100718.56
2023-04-27T15:33:38.000Z,100692.72
2023-04-27T15:36:39.925Z,100713.91
2023-04-27T15:39:42.237Z,100724.97
2023-04-27T15:42:44.233Z,100719.63
2023-04-27T15:45:46.189Z,100716.75
2023-04-27T15:48:48.107Z,100715.22
2023-04-27T15:51:50.490Z,100717.16
2023-04-27T15:54:52.453Z,100719.94
2023-04-27T15:57:54.554Z,100716.97
2023-04-27T16:00:56.430Z,100724.44
2023-04-27T16:03:58.462Z,100723.06
2023-04-27T16:07:00.407Z,100724.09
2023-04-27T16:10:02.787Z,100718.44
2023-04-27T16:13:04.752Z,100720.72
2023-04-27T16:16:08.384Z,100720.31
2023-04-27T16:19:10.409Z,100733.78
2023-04-27T16:22:12.327Z,100725.53
2023-04-27T16:25:14.200Z,100729.13
2023-04-27T16:28:18.012Z,100733.47
2023-04-27T16:31:20.226Z,100725.78
2023-04-27T16:34:22.281Z,100721.41
2023-04-27T16:37:24.110Z,100717.81
2023-04-27T16:40:26.115Z,100730.19
2023-04-27T16:43:30.054Z,100741.03
2023-04-27T16:46:32.027Z,100742.37
2023-04-27T16:49:34.164Z,100728.09
2023-04-27T16:52:36.227Z,100740.50
2023-04-27T16:55:38.163Z,100736.47
2023-04-27T16:58:40.974Z,100741.28
2023-04-27T17:01:43.093Z,100746.41
2023-04-27T17:04:45.177Z,100752.25
2023-04-27T17:07:47.369Z,100745.87
2023-04-27T17:10:49.280Z,100754.41
2023-04-27T17:13:51.197Z,100758.50
2023-04-27T17:16:53.085Z,100750.94
2023-04-27T17:19:54.967Z,100752.13
2023-04-27T17:22:56.920Z,100760.50
2023-04-27T17:25:58.790Z,100759.13
2023-04-27T17:29:01.635Z,100763.69
2023-04-27T17:32:04.350Z,100758.41
2023-04-27T17:35:06.531Z,100763.72
2023-04-27T17:38:08.569Z,100768.94
2023-04-27T17:41:10.534Z,100775.31
2023-04-27T17:44:12.908Z,100777.75
2023-04-27T17:47:14.883Z,100773.44
2023-04-27T17:50:16.769Z,100773.50
2023-04-27T17:53:18.606Z,100785.28
2023-04-27T17:56:20.523Z,100778.00
2023-04-27T17:59:22.365Z,100787.88
2023-04-27T18:02:26.840Z,100790.47
2023-04-27T18:05:28.799Z,100790.34
2023-04-27T18:08:30.682Z,100793.03
2023-04-27T18:11:32.637Z,100792.22
2023-04-27T18:14:34.550Z,100793.88
2023-04-27T18:17:36.644Z,100800.16
2023-04-27T18:20:38.575Z,100784.53
2023-04-27T18:23:41.424Z,100802.81
2023-04-27T18:26:43.311Z,100805.41
2023-04-27T18:29:45.544Z,100803.50
2023-04-27T18:32:47.469Z,100806.37
2023-04-27T18:35:49.612Z,100815.03
2023-04-27T18:38:51.505Z,100818.94
2023-04-27T18:41:53.512Z,100817.25
2023-04-27T18:44:55.391Z,100824.88
2023-04-27T18:47:57.342Z,100814.88
2023-04-27T18:50:59.232Z,100837.13
2023-04-27T18:54:01.296Z,100845.75
2023-04-27T18:57:04.348Z,100844.50
2023-04-27T19:00:06.560Z,100834.69
2023-04-27T19:03:08.718Z,100854.94
2023-04-27T19:06:10.767Z,100851.31
2023-04-27T19:09:13.071Z,100852.31
2023-04-27T19:12:15.275Z,100855.34
2023-04-27T19:15:17.190Z,100845.00
2023-04-27T19:18:19.178Z,100845.28
2023-04-27T19:21:21.104Z,100855.66
2023-04-27T19:24:23.011Z,100859.34
2023-04-27T19:27:25.052Z,100862.66
2023-04-27T19:30:26.956Z,100869.59
2023-04-27T19:33:29.385Z,100867.34
2023-04-27T19:36:31.902Z,100866.88
2023-04-27T19:39:34.453Z,100847.81
2023-04-27T19:42:36.533Z,100872.25
2023-04-27T19:45:39.119Z,100874.37
2023-04-27T19:48:42.539Z,100860.44
2023-04-27T19:51:44.720Z,100873.81
2023-04-27T19:54:51.111Z,100851.06
2023-04-27T19:57:52.987Z,100853.63
2023-04-27T20:00:55.497Z,100870.53
2023-04-27T20:03:57.781Z,100882.66
2023-04-27T20:06:59.780Z,100876.28
2023-04-27T20:10:02.905Z,100870.63
2023-04-27T20:13:05.005Z,100869.19
2023-04-27T20:16:09.093Z,100871.22
2023-04-27T20:19:11.067Z,100870.41
2023-04-27T20:22:13.308Z,100875.81
2023-04-27T20:25:15.774Z,100876.00
2023-04-27T20:28:18.051Z,100882.44
2023-04-27T20:31:20.187Z,100886.16
2023-04-27T20:34:22.101Z,100883.03
2023-04-27T20:37:24.883Z,100885.38
2023-04-27T20:40:26.794Z,100881.50
2023-04-27T20:43:28.855Z,100877.59
2023-04-27T20:46:31.179Z,100890.50
2023-04-27T20:49:35.369Z,100889.03
2023-04-27T20:52:37.864Z,100892.94
2023-04-27T20:55:39.827Z,100891.69
2023-04-27T20:58:41.856Z,100869.19
2023-04-27T21:01:43.955Z,100897.53
2023-04-27T21:04:46.099Z,100891.13
2023-04-27T21:07:48.099Z,100898.59
2023-04-27T21:10:49.995Z,100897.66
2023-04-27T21:13:52.268Z,100894.31
2023-04-27T21:16:54.204Z,100898.34
2023-04-27T21:19:58.046Z,100883.03
2023-04-27T21:23:00.658Z,100907.31
2023-04-27T21:26:02.625Z,100910.06
2023-04-27T21:29:05.943Z,100915.63
2023-04-27T21:32:08.543Z,100904.47
2023-04-27T21:35:10.516Z,100886.88
2023-04-27T21:38:12.386Z,100918.37
2023-04-27T21:41:15.654Z,100916.88
2023-04-27T21:44:17.742Z,100925.81
2023-04-27T21:47:19.734Z,100928.47
2023-04-27T21:50:21.608Z,100927.38
2023-04-27T21:53:23.534Z,100928.25
2023-04-27T21:56:25.855Z,100925.88
2023-04-27T21:59:27.724Z,100908.72
2023-04-27T22:02:30.806Z,100925.84
2023-04-27T22:05:33.547Z,100933.28
2023-04-27T22:08:35.819Z,100945.28
2023-04-27T22:11:37.972Z,100943.81
2023-04-27T22:14:42.926Z,100944.69
2023-04-27T22:17:44.957Z,100940.56
2023-04-27T22:20:47.415Z,100938.25
2023-04-27T22:23:49.322Z,100937.19
2023-04-27T22:26:51.127Z,100933.84
2023-04-27T22:29:53.024Z,100955.53
2023-04-27T22:32:55.373Z,100947.59
2023-04-27T22:35:57.433Z,100944.44
2023-04-27T22:38:59.464Z,100950.28
2023-04-27T22:42:01.452Z,100951.66
2023-04-27T22:45:03.395Z,100947.44
2023-04-27T22:48:05.392Z,100959.03
2023-04-27T22:51:07.986Z,100959.59
2023-04-27T22:54:09.887Z,100943.97
2023-04-27T22:57:11.971Z,100964.06
2023-04-27T23:00:14.047Z,100962.84
2023-04-27T23:03:16.306Z,100948.31
2023-04-27T23:06:18.506Z,100964.16
2023-04-27T23:09:25.417Z,100963.50
2023-04-27T23:12:28.871Z,100969.59
2023-04-27T23:15:31.147Z,100964.56
2023-04-27T23:18:33.429Z,100963.69
2023-04-27T23:21:35.392Z,100963.19
2023-04-27T23:24:37.428Z,100976.94
2023-04-27T23:27:39.283Z,100974.56
2023-04-27T23:30:41.368Z,100966.69
2023-04-27T23:33:43.269Z,100960.34
2023-04-27T23:36:47.408Z,100962.37
2023-04-27T23:39:49.318Z,100961.75
2023-04-27T23:42:51.929Z,100959.53
2023-04-27T23:45:53.869Z,100965.25
2023-04-27T23:48:55.836Z,100970.44
2023-04-27T23:51:57.729Z,100963.22
2023-04-27T23:54:59.575Z,100964.44
2023-04-27T23:58:01.408Z,100958.03
